createdAt,value
2022-10-25T00:02:16.700Z,96447.03
2022-10-25T00:04:45.480Z,96451.38
2022-10-25T00:07:13.427Z,96451.38
2022-10-25T00:09:41.108Z,96445.78
2022-10-25T00:12:10.250Z,96451.66
2022-10-25T00:14:37.981Z,96453.09
2022-10-25T00:17:05.679Z,96451.31
2022-10-25T00:19:33.379Z,96450.53
2022-10-25T00:22:01.070Z,96452.44
2022-10-25T00:24:29.017Z,96455.75
2022-10-25T00:26:56.747Z,96459.06
2022-10-25T00:29:25.897Z,96446.97
2022-10-25T00:31:53.590Z,96450.16
2022-10-25T00:34:21.331Z,96445.38
2022-10-25T00:36:49.008Z,96453.81
2022-10-25T00:39:16.689Z,96449.81
2022-10-25T00:41:44.462Z,96456.16
2022-10-25T00:45:01.625Z,96458.69
2022-10-25T00:47:46.009Z,96442.44
2022-10-25T00:50:45.367Z,96456.59
2022-10-25T00:53:16.159Z,96444.66
2022-10-25T00:55:49.429Z,96449.91
2022-10-25T00:58:21.312Z,96448.59
2022-10-25T01:00:50.414Z,96442.41
2022-10-25T01:03:21.784Z,96438.53
2022-10-25T01:05:50.778Z,96442.66
2022-10-25T01:08:20.719Z,96446.34
2022-10-25T01:10:49.447Z,96451.13
2022-10-25T01:13:17.300Z,96445.72
2022-10-25T01:15:56.068Z,96445.38
2022-10-25T01:18:33.448Z,96444.84
2022-10-25T01:21:33.135Z,96444.06
2022-10-25T01:24:17.006Z,96448.81
2022-10-25T01:27:05.159Z,96442.53
2022-10-25T01:30:10.269Z,96443.47
2022-10-25T01:33:02.524Z,96427.84
2022-10-25T01:35:33.418Z,96434.97
2022-10-25T01:38:09.899Z,96427.34
2022-10-25T01:40:46.466Z,96431.16
2022-10-25T01:43:24.261Z,96424.63
2022-10-25T01:46:00.887Z,96425.47
2022-10-25T01:48:35.293Z,96427.84
2022-10-25T01:51:11.547Z,96433.25
2022-10-25T01:53:47.492Z,96436.84
2022-10-25T01:56:22.781Z,96438.75
2022-10-25T01:59:06.592Z,96441.97
2022-10-25T02:04:27.284Z,96437.59
2022-10-25T02:07:01.682Z,96440.72
2022-10-25T02:09:37.846Z,96435.13
2022-10-25T02:12:09.550Z,96435.44
2022-10-25T02:14:40.113Z,96431.94
2022-10-25T02:17:13.374Z,96431.13
2022-10-25T02:19:46.783Z,96441.94
2022-10-25T02:22:16.675Z,96421.44
2022-10-25T02:24:47.681Z,96423.03
2022-10-25T02:27:16.995Z,96426.22
2022-10-25T02:29:46.902Z,96428.63
2022-10-25T02:32:14.677Z,96432.72
2022-10-25T02:34:43.755Z,96425.72
2022-10-25T02:37:11.436Z,96427.63
2022-10-25T02:39:39.250Z,96419.53
2022-10-25T02:42:07.259Z,96427.63
2022-10-25T02:44:34.984Z,96429.81
2022-10-25T02:47:02.738Z,96438.25
2022-10-25T02:49:30.444Z,96428.56
2022-10-25T02:51:59.542Z,96443.16
2022-10-25T02:54:27.239Z,96452.34
2022-10-25T02:56:54.991Z,96448.84
2022-10-25T02:59:22.782Z,96442.47
2022-10-25T03:01:50.506Z,96448.78
2022-10-25T03:04:18.269Z,96454.69
2022-10-25T03:06:45.998Z,96461.19
2022-10-25T03:09:15.074Z,96447.38
2022-10-25T03:11:42.779Z,96458.88
2022-10-25T03:14:10.465Z,96462.19
2022-10-25T03:16:38.196Z,96452.09
2022-10-25T03:19:05.895Z,96453.13
2022-10-25T03:21:36.528Z,96453.53
2022-10-25T03:24:07.271Z,96454.16
2022-10-25T03:26:36.363Z,96446.44
2022-10-25T03:29:04.191Z,96438.13
2022-10-25T03:31:31.911Z,96459.03
2022-10-25T03:33:59.588Z,96448.44
2022-10-25T03:36:27.352Z,96451.56
2022-10-25T03:38:55.066Z,96455.97
2022-10-25T03:41:22.732Z,96457.66
2022-10-25T03:43:51.884Z,96458.16
2022-10-25T03:46:19.592Z,96457.56
2022-10-25T03:48:47.380Z,96458.47
2022-10-25T03:51:15.051Z,96460.69
2022-10-25T03:53:42.732Z,96447.47
2022-10-25T03:56:10.407Z,96464.44
2022-10-25T03:58:38.101Z,96458.78
2022-10-25T04:01:09.462Z,96451.47
2022-10-25T04:03:37.464Z,96457.97
2022-10-25T04:06:05.515Z,96456.06
2022-10-25T04:08:33.212Z,96457.16
2022-10-25T04:11:00.927Z,96460.06
2022-10-25T04:13:29.112Z,96454.06
2022-10-25T04:15:56.769Z,96461.56
2022-10-25T04:18:25.825Z,96454.97
2022-10-25T04:20:53.516Z,96457.66
2022-10-25T04:23:21.251Z,96455.44
2022-10-25T04:25:48.929Z,96457.34
2022-10-25T04:28:16.720Z,96460.94
2022-10-25T04:30:44.402Z,96460.75
2022-10-25T04:33:12.075Z,96469.66
2022-10-25T04:35:41.147Z,96458.66
2022-10-25T04:38:08.856Z,96456.97
2022-10-25T04:40:36.543Z,96464.28
2022-10-25T04:43:04.240Z,96456.16
2022-10-25T04:45:31.931Z,96465.06
2022-10-25T04:48:00.730Z,96468.34
2022-10-25T04:50:28.468Z,96468.66
2022-10-25T04:52:57.513Z,96468.66
2022-10-25T04:55:25.196Z,96469.47
2022-10-25T04:57:52.883Z,96471.66
2022-10-25T05:00:20.764Z,96473.06
2022-10-25T05:02:48.693Z,96477.94
2022-10-25T05:05:16.880Z,96479.84
2022-10-25T05:07:44.745Z,96491.25
2022-10-25T05:10:14.250Z,96484.06
2022-10-25T05:12:41.997Z,96495.66
2022-10-25T05:15:10.993Z,96491.34
2022-10-25T05:17:38.655Z,96491.94
2022-10-25T05:20:07.588Z,96497.84
2022-10-25T05:22:35.271Z,96495.44
2022-10-25T05:25:02.959Z,96495.75
2022-10-25T05:27:32.042Z,96495.44
2022-10-25T05:29:59.703Z,96492.22
2022-10-25T05:32:27.375Z,96499.53
2022-10-25T05:34:55.059Z,96492.53
2022-10-25T05:37:22.743Z,96499.84
2022-10-25T05:39:50.434Z,96500.41
2022-10-25T05:42:18.127Z,96506.44
2022-10-25T05:44:47.143Z,96510.81
2022-10-25T05:47:14.867Z,96527.00
2022-10-25T05:49:42.592Z,96523.28
2022-10-25T05:52:11.157Z,96520.16
2022-10-25T05:54:38.847Z,96524.50
2022-10-25T05:57:06.581Z,96534.19
2022-10-25T05:59:34.255Z,96520.38
2022-10-25T06:02:03.487Z,96530.59
2022-10-25T06:04:31.385Z,96528.38
2022-10-25T06:06:59.086Z,96538.59
2022-10-25T06:09:26.814Z,96537.22
2022-10-25T06:11:54.518Z,96535.31
2022-10-25T06:14:22.200Z,96539.00
2022-10-25T06:16:49.895Z,96546.81
2022-10-25T06:19:18.967Z,96539.72
2022-10-25T06:21:46.798Z,96530.22
2022-10-25T06:24:14.587Z,96540.13
2022-10-25T06:26:42.280Z,96547.09
2022-10-25T06:29:10.444Z,96543.81
2022-10-25T06:31:38.163Z,96545.94
2022-10-25T06:34:05.875Z,96560.44
2022-10-25T06:36:34.942Z,96555.53
2022-10-25T06:39:05.971Z,96563.63
2022-10-25T06:41:36.762Z,96560.34
2022-10-25T06:44:06.626Z,96556.22
2022-10-25T06:46:57.874Z,96561.03
2022-10-25T06:49:24.515Z,96567.44
2022-10-25T06:51:53.624Z,96563.31
2022-10-25T06:54:21.292Z,96567.03
2022-10-25T06:56:48.979Z,96562.16
2022-10-25T06:59:17.083Z,96560.44
2022-10-25T07:01:44.918Z,96571.75
2022-10-25T07:04:12.771Z,96569.25
2022-10-25T07:06:40.601Z,96576.66
2022-10-25T07:09:12.296Z,96578.84
2022-10-25T07:11:40.514Z,96578.81
2022-10-25T07:14:11.056Z,96584.22
2022-10-25T07:16:38.751Z,96580.09
2022-10-25T07:19:06.446Z,96580.06
2022-10-25T07:21:34.647Z,96592.72
2022-10-25T07:24:02.594Z,96593.78
2022-10-25T07:26:33.793Z,96599.16
2022-10-25T07:29:03.027Z,96591.59
2022-10-25T07:31:32.567Z,96591.16
2022-10-25T07:34:02.356Z,96588.34
2022-10-25T07:36:30.506Z,96596.13
2022-10-25T07:38:58.659Z,96595.41
2022-10-25T07:41:27.227Z,96594.75
2022-10-25T07:43:56.426Z,96600.88
2022-10-25T07:46:24.695Z,96599.63
2022-10-25T07:48:53.303Z,96597.28
2022-10-25T07:51:21.158Z,96594.13
2022-10-25T07:53:49.825Z,96592.69
2022-10-25T07:56:22.403Z,96602.91
2022-10-25T07:58:51.948Z,96603.28
2022-10-25T08:01:23.076Z,96607.09
2022-10-25T08:03:51.295Z,96599.34
2022-10-25T08:06:19.561Z,96592.38
2022-10-25T08:08:47.219Z,96605.81
2022-10-25T08:11:14.983Z,96596.91
2022-10-25T08:13:42.704Z,96599.16
2022-10-25T08:16:10.466Z,96595.38
2022-10-25T08:18:39.553Z,96593.97
2022-10-25T08:21:07.278Z,96595.09
2022-10-25T08:23:35.052Z,96594.94
2022-10-25T08:26:03.153Z,96594.94
2022-10-25T08:28:31.708Z,96603.56
2022-10-25T08:31:00.829Z,96608.84
2022-10-25T08:33:29.467Z,96609.94
2022-10-25T08:36:00.752Z,96618.88
2022-10-25T08:38:28.540Z,96613.13
2022-10-25T08:41:03.431Z,96614.09
2022-10-25T08:43:51.895Z,96616.16
2022-10-25T08:46:24.755Z,96609.41
2022-10-25T08:48:58.119Z,96611.13
2022-10-25T08:51:30.828Z,96622.78
2022-10-25T08:54:04.129Z,96616.38
2022-10-25T08:56:33.552Z,96619.22
2022-10-25T08:59:03.188Z,96614.84
2022-10-25T09:01:37.461Z,96618.03
2022-10-25T09:04:05.660Z,96615.25
2022-10-25T09:06:41.224Z,96621.78
2022-10-25T09:09:23.019Z,96616.75
2022-10-25T09:12:03.397Z,96618.28
2022-10-25T09:14:43.174Z,96619.84
2022-10-25T09:17:19.598Z,96625.94
2022-10-25T09:20:01.600Z,96625.53
2022-10-25T09:22:31.877Z,96629.94
2022-10-25T09:25:03.741Z,96628.44
2022-10-25T09:27:37.004Z,96630.75
2022-10-25T09:30:08.455Z,96636.50
2022-10-25T09:32:40.334Z,96631.69
2022-10-25T09:35:16.455Z,96647.19
2022-10-25T09:37:50.089Z,96636.22
2022-10-25T09:40:22.237Z,96635.56
2022-10-25T09:42:54.990Z,96639.38
2022-10-25T09:45:27.535Z,96637.16
2022-10-25T09:48:05.077Z,96635.94
2022-10-25T09:50:38.252Z,96636.19
2022-10-25T09:53:12.676Z,96641.75
2022-10-25T09:55:51.155Z,96638.75
2022-10-25T09:58:22.567Z,96639.44
2022-10-25T10:00:51.145Z,96649.03
2022-10-25T10:03:20.348Z,96641.00
2022-10-25T10:05:55.072Z,96642.72
2022-10-25T10:08:25.243Z,96644.66
2022-10-25T10:10:54.538Z,96642.88
2022-10-25T10:13:29.755Z,96638.53
2022-10-25T10:16:00.435Z,96640.81
2022-10-25T10:18:31.627Z,96638.09
2022-10-25T10:21:03.077Z,96634.09
2022-10-25T10:23:36.031Z,96640.66
2022-10-25T10:26:10.568Z,96642.75
2022-10-25T10:28:38.621Z,96641.09
2022-10-25T10:31:08.185Z,96642.97
2022-10-25T10:33:36.391Z,96629.16
2022-10-25T10:36:25.738Z,96634.06
2022-10-25T10:38:55.535Z,96633.28
2022-10-25T10:41:28.800Z,96630.31
2022-10-25T10:44:12.474Z,96623.84
2022-10-25T10:46:45.766Z,96625.34
2022-10-25T10:49:15.044Z,96622.50
2022-10-25T10:51:45.615Z,96621.88
2022-10-25T10:54:23.051Z,96611.56
2022-10-25T10:56:58.916Z,96613.44
2022-10-25T10:59:40.056Z,96609.47
2022-10-25T11:02:17.869Z,96603.19
2022-10-25T11:04:49.896Z,96600.03
2022-10-25T11:07:28.855Z,96586.00
2022-10-25T11:10:23.622Z,96591.25
2022-10-25T11:13:12.926Z,96592.13
2022-10-25T11:16:18.623Z,96591.66
2022-10-25T11:18:54.191Z,96586.50
2022-10-25T11:21:42.751Z,96575.13
2022-10-25T11:24:22.586Z,96586.84
2022-10-25T11:26:58.477Z,96572.38
2022-10-25T11:29:47.896Z,96573.00
2022-10-25T11:32:54.895Z,96578.97
2022-10-25T11:35:46.137Z,96570.16
2022-10-25T11:38:21.781Z,96584.97
2022-10-25T11:41:02.666Z,96578.19
2022-10-25T11:43:51.447Z,96580.06
2022-10-25T11:46:31.172Z,96576.34
2022-10-25T11:49:22.239Z,96574.78
2022-10-25T11:52:15.737Z,96566.34
2022-10-25T11:54:48.730Z,96572.97
2022-10-25T11:57:26.495Z,96569.28
2022-10-25T12:00:03.895Z,96563.28
2022-10-25T12:03:02.954Z,96558.69
2022-10-25T12:05:40.236Z,96553.44
2022-10-25T12:08:20.954Z,96555.41
2022-10-25T12:10:54.104Z,96560.16
2022-10-25T12:13:27.413Z,96559.03
2022-10-25T12:15:58.693Z,96552.56
2022-10-25T12:18:29.936Z,96555.03
2022-10-25T12:20:58.757Z,96551.94
2022-10-25T12:23:28.906Z,96557.13
2022-10-25T12:26:01.347Z,96552.66
2022-10-25T12:28:33.193Z,96547.06
2022-10-25T12:31:09.198Z,96546.09
2022-10-25T12:33:41.999Z,96547.44
2022-10-25T12:36:24.706Z,96542.03
2022-10-25T12:38:53.405Z,96545.88
2022-10-25T12:41:24.444Z,96541.94
2022-10-25T12:44:13.705Z,96533.84
2022-10-25T12:47:02.672Z,96536.03
2022-10-25T12:50:02.076Z,96536.78
2022-10-25T12:52:34.619Z,96528.63
2022-10-25T12:55:26.059Z,96533.28
2022-10-25T12:58:05.006Z,96532.50
2022-10-25T13:00:39.147Z,96530.06
2022-10-25T13:03:51.478Z,96520.28
2022-10-25T13:06:29.728Z,96521.66
2022-10-25T13:09:04.171Z,96516.81
2022-10-25T13:11:41.630Z,96518.19
2022-10-25T13:14:26.648Z,96529.25
2022-10-25T13:17:14.367Z,96529.75
2022-10-25T13:19:59.519Z,96518.97
2022-10-25T13:22:37.380Z,96514.38
2022-10-25T13:25:18.104Z,96508.81
2022-10-25T13:28:19.875Z,96510.34
2022-10-25T13:30:47.588Z,96505.16
2022-10-25T13:33:33.228Z,96500.50
2022-10-25T13:36:04.991Z,96499.63
2022-10-25T13:38:39.339Z,96497.25
2022-10-25T13:41:19.541Z,96498.78
2022-10-25T13:43:58.374Z,96501.69
2022-10-25T13:46:30.848Z,96495.66
2022-10-25T13:49:01.042Z,96510.69
2022-10-25T13:51:33.988Z,96505.53
2022-10-25T13:54:08.477Z,96503.47
2022-10-25T13:56:50.480Z,96503.66
2022-10-25T13:59:38.087Z,96500.81
2022-10-25T14:02:17.767Z,96500.69
2022-10-25T14:04:45.883Z,96499.06
2022-10-25T14:07:50.693Z,96501.78
2022-10-25T14:10:27.833Z,96497.31
2022-10-25T14:13:02.814Z,96500.00
2022-10-25T14:15:39.299Z,96493.53
2022-10-25T14:18:09.558Z,96505.59
2022-10-25T14:20:38.756Z,96495.31
2022-10-25T14:23:14.081Z,96487.31
2022-10-25T14:25:43.838Z,96499.19
2022-10-25T14:28:16.441Z,96494.78
2022-10-25T14:30:45.591Z,96495.00
2022-10-25T14:33:25.266Z,96492.06
2022-10-25T14:35:54.679Z,96489.53
2022-10-25T14:38:26.443Z,96488.63
2022-10-25T14:40:56.387Z,96485.53
2022-10-25T14:43:31.947Z,96483.06
2022-10-25T14:46:12.653Z,96489.94
2022-10-25T14:48:41.106Z,96478.09
2022-10-25T14:51:14.509Z,96488.69
2022-10-25T14:53:51.659Z,96486.59
2022-10-25T14:56:27.240Z,96493.16
2022-10-25T14:58:56.212Z,96493.34
2022-10-25T15:01:24.625Z,96486.06
2022-10-25T15:03:55.320Z,96485.13
2022-10-25T15:06:26.469Z,96478.25
2022-10-25T15:09:29.151Z,96476.06
2022-10-25T15:12:04.830Z,96472.56
2022-10-25T15:14:32.535Z,96471.75
2022-10-25T15:17:03.511Z,96475.38
2022-10-25T15:19:31.364Z,96469.13
2022-10-25T15:22:07.814Z,96464.88
2022-10-25T15:24:46.695Z,96457.53
2022-10-25T15:27:27.806Z,96457.94
2022-10-25T15:29:55.625Z,96469.75
2022-10-25T15:32:26.380Z,96464.28
2022-10-25T15:34:56.209Z,96464.13
2022-10-25T15:37:25.506Z,96463.22
2022-10-25T15:39:57.294Z,96464.41
2022-10-25T15:42:27.024Z,96458.81
2022-10-25T15:44:55.375Z,96456.03
2022-10-25T15:47:32.615Z,96458.69
2022-10-25T15:50:02.735Z,96462.59
2022-10-25T15:52:30.646Z,96453.06
2022-10-25T15:54:59.725Z,96454.22
2022-10-25T15:57:28.232Z,96459.63
2022-10-25T15:59:55.960Z,96456.44
2022-10-25T16:02:27.076Z,96457.56
2022-10-25T16:04:54.955Z,96456.78
2022-10-25T16:07:23.173Z,96458.19
2022-10-25T16:09:50.857Z,96462.69
2022-10-25T16:12:22.416Z,96458.59
2022-10-25T16:14:52.160Z,96463.34
2022-10-25T16:17:20.020Z,96460.09
2022-10-25T16:19:47.729Z,96466.78
2022-10-25T16:22:15.500Z,96468.66
2022-10-25T16:24:43.223Z,96463.47
2022-10-25T16:27:12.267Z,96468.16
2022-10-25T16:29:41.797Z,96466.63
2022-10-25T16:32:09.583Z,96473.25
2022-10-25T16:34:38.117Z,96472.03
2022-10-25T16:37:09.208Z,96469.19
2022-10-25T16:39:39.358Z,96471.59
2022-10-25T16:42:28.064Z,96472.13
2022-10-25T16:44:57.215Z,96467.19
2022-10-25T16:47:24.980Z,96479.22
2022-10-25T16:49:52.758Z,96474.63
2022-10-25T16:52:20.876Z,96485.63
2022-10-25T16:54:48.894Z,96486.13
2022-10-25T16:57:17.060Z,96485.03
2022-10-25T16:59:44.899Z,96488.72
2022-10-25T17:02:18.038Z,96484.09
2022-10-25T17:04:46.399Z,96480.75
2022-10-25T17:07:14.119Z,96487.94
2022-10-25T17:09:41.902Z,96480.78
2022-10-25T17:12:10.437Z,96473.13
2022-10-25T17:14:38.515Z,96482.25
2022-10-25T17:17:06.204Z,96474.28
2022-10-25T17:19:35.235Z,96481.63
2022-10-25T17:22:03.031Z,96481.94
2022-10-25T17:24:32.915Z,96480.66
2022-10-25T17:27:00.716Z,96481.16
2022-10-25T17:29:28.503Z,96494.41
2022-10-25T17:31:56.291Z,96485.47
2022-10-25T17:34:24.065Z,96487.38
2022-10-25T17:36:53.754Z,96482.75
2022-10-25T17:39:21.832Z,96477.50
2022-10-25T17:41:49.528Z,96483.09
2022-10-25T17:44:17.266Z,96478.78
2022-10-25T17:46:45.040Z,96480.03
2022-10-25T17:49:16.180Z,96477.50
2022-10-25T17:51:46.750Z,96484.50
2022-10-25T17:54:17.744Z,96476.38
2022-10-25T17:56:45.517Z,96474.44
2022-10-25T17:59:13.225Z,96472.47
2022-10-25T18:01:41.055Z,96476.28
2022-10-25T18:04:09.439Z,96476.91
2022-10-25T18:06:37.177Z,96473.28
2022-10-25T18:09:05.111Z,96471.50
2022-10-25T18:11:34.283Z,96475.63
2022-10-25T18:14:02.633Z,96477.88
2022-10-25T18:16:34.323Z,96470.03
2022-10-25T18:19:04.971Z,96471.63
2022-10-25T18:21:33.700Z,96467.47
2022-10-25T18:24:02.973Z,96465.09
2022-10-25T18:26:30.738Z,96467.16
2022-10-25T18:29:00.372Z,96468.41
2022-10-25T18:31:28.676Z,96463.94
2022-10-25T18:33:58.809Z,96468.25
2022-10-25T18:36:28.415Z,96467.88
2022-10-25T18:38:56.330Z,96462.75
2022-10-25T18:41:26.738Z,96453.50
2022-10-25T18:43:56.061Z,96455.91
2022-10-25T18:46:29.252Z,96447.31
2022-10-25T18:48:57.386Z,96446.94
2022-10-25T18:51:28.784Z,96445.81
2022-10-25T18:53:57.265Z,96443.22
2022-10-25T18:56:25.191Z,96442.41
2022-10-25T18:58:53.826Z,96438.09
2022-10-25T19:01:27.923Z,96444.13
2022-10-25T19:03:58.082Z,96429.97
2022-10-25T19:06:26.846Z,96431.28
2022-10-25T19:08:54.859Z,96439.34
2022-10-25T19:11:23.277Z,96431.22
2022-10-25T19:13:54.305Z,96425.34
2022-10-25T19:16:22.548Z,96426.44
2022-10-25T19:18:51.902Z,96429.13
2022-10-25T19:21:20.394Z,96428.03
2022-10-25T19:23:49.106Z,96426.41
2022-10-25T19:26:18.865Z,96428.31
2022-10-25T19:28:47.473Z,96437.53
2022-10-25T19:31:18.525Z,96432.25
2022-10-25T19:33:48.093Z,96423.84
2022-10-25T19:36:18.704Z,96433.84
2022-10-25T19:38:48.403Z,96427.81
2022-10-25T19:41:19.350Z,96429.19
2022-10-25T19:43:49.093Z,96431.91
2022-10-25T19:46:18.381Z,96426.13
2022-10-25T19:48:46.923Z,96423.91
2022-10-25T19:51:17.893Z,96436.50
2022-10-25T19:53:46.904Z,96425.84
2022-10-25T19:56:16.876Z,96428.56
2022-10-25T19:58:45.412Z,96429.34
2022-10-25T20:01:15.749Z,96418.72
2022-10-25T20:03:45.170Z,96417.13
2022-10-25T20:06:18.702Z,96413.78
2022-10-25T20:08:51.294Z,96412.84
2022-10-25T20:11:19.630Z,96409.16
2022-10-25T20:13:47.860Z,96408.50
2022-10-25T20:16:15.831Z,96406.53
2022-10-25T20:18:43.870Z,96399.03
2022-10-25T20:21:13.958Z,96408.25
2022-10-25T20:23:42.875Z,96400.47
2022-10-25T20:26:14.090Z,96403.09
2022-10-25T20:28:42.154Z,96405.63
2022-10-25T20:31:09.923Z,96404.13
2022-10-25T20:33:38.066Z,96398.22
2022-10-25T20:36:08.443Z,96403.13
2022-10-25T20:38:37.447Z,96400.44
2022-10-25T20:41:06.052Z,96403.84
2022-10-25T20:43:35.682Z,96403.41
2022-10-25T20:46:03.603Z,96399.78
2022-10-25T20:48:31.695Z,96398.88
2022-10-25T20:51:04.041Z,96403.16
2022-10-25T20:53:35.565Z,96398.38
2022-10-25T20:56:03.399Z,96393.13
2022-10-25T20:58:31.195Z,96389.66
2022-10-25T21:01:00.255Z,96390.75
2022-10-25T21:03:30.680Z,96399.34
2022-10-25T21:06:00.151Z,96400.94
2022-10-25T21:08:28.154Z,96399.16
2022-10-25T21:10:57.219Z,96398.97
2022-10-25T21:13:26.182Z,96391.00
2022-10-25T21:15:54.389Z,96390.19
2022-10-25T21:18:28.068Z,96384.31
2022-10-25T21:21:01.167Z,96384.00
2022-10-25T21:23:29.280Z,96393.22
2022-10-25T21:26:00.629Z,96379.19
2022-10-25T21:28:32.343Z,96377.38
2022-10-25T21:31:01.947Z,96379.13
2022-10-25T21:33:31.384Z,96375.72
2022-10-25T21:36:03.930Z,96373.16
2022-10-25T21:38:32.158Z,96372.88
2022-10-25T21:41:08.010Z,96370.97
2022-10-25T21:43:35.832Z,96355.69
2022-10-25T21:46:06.437Z,96366.47
2022-10-25T21:48:36.110Z,96364.56
2022-10-25T21:51:04.226Z,96351.06
2022-10-25T21:53:32.086Z,96352.19
2022-10-25T21:56:08.247Z,96352.78
2022-10-25T21:58:35.998Z,96361.81
2022-10-25T22:01:07.822Z,96363.22
2022-10-25T22:03:37.383Z,96354.94
2022-10-25T22:06:07.031Z,96351.94
2022-10-25T22:08:34.910Z,96353.72
2022-10-25T22:11:04.248Z,96347.63
2022-10-25T22:13:31.934Z,96347.63
2022-10-25T22:16:01.079Z,96354.75
2022-10-25T22:18:29.599Z,96353.16
2022-10-25T22:21:01.016Z,96354.56
2022-10-25T22:23:31.491Z,96357.78
2022-10-25T22:26:02.252Z,96356.47
2022-10-25T22:28:30.175Z,96345.06
2022-10-25T22:30:58.594Z,96340.31
2022-10-25T22:33:26.677Z,96341.50
2022-10-25T22:35:54.444Z,96351.66
2022-10-25T22:38:23.519Z,96353.25
2022-10-25T22:41:01.988Z,96363.47
2022-10-25T22:43:30.200Z,96375.56
2022-10-25T22:46:00.910Z,96375.44
2022-10-25T22:48:31.410Z,96383.72
2022-10-25T22:50:59.207Z,96381.19
2022-10-25T22:53:29.040Z,96372.81
2022-10-25T22:55:58.465Z,96373.50
2022-10-25T22:58:27.460Z,96376.38
2022-10-25T23:01:00.559Z,96376.38
2022-10-25T23:03:28.398Z,96379.56
2022-10-25T23:05:59.546Z,96344.91
2022-10-25T23:08:29.295Z,96319.66
2022-10-25T23:11:01.787Z,96304.88
2022-10-25T23:13:30.040Z,96303.88
2022-10-25T23:15:57.883Z,96301.19
2022-10-25T23:18:25.751Z,96315.16
2022-10-25T23:20:55.275Z,96322.34
2022-10-25T23:23:23.867Z,96333.34
2022-10-25T23:25:53.261Z,96334.31
2022-10-25T23:28:22.214Z,96326.22
2022-10-25T23:30:49.927Z,96331.63
2022-10-25T23:33:17.743Z,96328.44
2022-10-25T23:35:45.502Z,96316.50
2022-10-25T23:38:14.170Z,96319.22
2022-10-25T23:40:47.269Z,96331.16
2022-10-25T23:43:16.452Z,96346.25
2022-10-25T23:45:44.163Z,96341.47
2022-10-25T23:48:11.856Z,96339.25
2022-10-25T23:50:39.592Z,96335.44
2022-10-25T23:53:08.496Z,96323.50
2022-10-25T23:55:38.531Z,96311.56
2022-10-25T23:58:06.467Z,96309.53
